createdAt,value
2018-02-20T00:00:12.017Z,-0.78
2018-02-20T00:01:11.668Z,-0.89
2018-02-20T00:02:11.906Z,-0.92
2018-02-20T00:03:11.617Z,-0.92
2018-02-20T00:04:11.856Z,-0.86
2018-02-20T00:05:11.879Z,-0.89
2018-02-20T00:06:11.805Z,-0.87
2018-02-20T00:07:11.522Z,-0.84
2018-02-20T00:08:11.489Z,-0.87
2018-02-20T00:09:11.729Z,-0.86
2018-02-20T00:10:11.442Z,-0.95
2018-02-20T00:11:11.150Z,-0.95
2018-02-20T00:12:11.656Z,-0.91
2018-02-20T00:13:11.367Z,-0.89
2018-02-20T00:14:11.071Z,-0.87
2018-02-20T00:15:11.629Z,-0.89
2018-02-20T00:16:11.295Z,-0.92
2018-02-20T00:17:11.269Z,-0.87
2018-02-20T00:18:11.240Z,-1.02
2018-02-20T00:19:10.951Z,-0.94
2018-02-20T00:20:11.189Z,-0.87
2018-02-20T00:21:11.166Z,-0.86
2018-02-20T00:22:11.150Z,-0.84
2018-02-20T00:23:11.115Z,-0.91
2018-02-20T00:24:11.089Z,-0.87
2018-02-20T00:25:11.063Z,-0.94
2018-02-20T00:26:11.310Z,-0.97
2018-02-20T00:27:11.014Z,-0.99
2018-02-20T00:28:10.986Z,-0.97
2018-02-20T00:29:10.962Z,-0.99
2018-02-20T00:30:10.937Z,-0.94
2018-02-20T00:31:11.177Z,-0.95
2018-02-20T00:32:11.153Z,-0.97
2018-02-20T00:33:10.861Z,-0.91
2018-02-20T00:34:10.837Z,-0.99
2018-02-20T00:35:10.544Z,-0.97
2018-02-20T00:36:11.056Z,-0.89
2018-02-20T00:37:10.761Z,-0.92
2018-02-20T00:38:10.739Z,-0.95
2018-02-20T00:39:10.975Z,-0.92
2018-02-20T00:40:10.686Z,-0.94
2018-02-20T00:41:10.926Z,-0.99
2018-02-20T00:42:10.631Z,-1.05
2018-02-20T00:43:10.607Z,-1
2018-02-20T00:44:10.583Z,-1
2018-02-20T00:45:10.823Z,-1.06
2018-02-20T00:46:10.531Z,-1.02
2018-02-20T00:47:10.504Z,-0.95
2018-02-20T00:48:10.477Z,-1.02
2018-02-20T00:49:10.718Z,-0.97
2018-02-20T00:50:10.697Z,-1.02
2018-02-20T00:51:10.671Z,-0.97
2018-02-20T00:52:10.382Z,-1
2018-02-20T00:53:10.621Z,-1.06
2018-02-20T00:54:10.064Z,-1.02
2018-02-20T00:55:10.299Z,-1.06
2018-02-20T00:56:10.276Z,-1.06
2018-02-20T00:57:10.528Z,-1.05
2018-02-20T00:58:10.495Z,-1.05
2018-02-20T00:59:09.933Z,-1.06
2018-02-20T01:00:10.180Z,-1.12
2018-02-20T01:01:10.200Z,-1.13
2018-02-20T01:02:10.120Z,-1.06
2018-02-20T01:03:10.365Z,-1.07
2018-02-20T01:04:10.337Z,-1.09
2018-02-20T01:05:10.057Z,-1.06
2018-02-20T01:06:10.291Z,-1.1
2018-02-20T01:07:09.998Z,-1.07
2018-02-20T01:08:10.016Z,-1.1
2018-02-20T01:09:10.213Z,-1.13
2018-02-20T01:10:10.197Z,-1.23
2018-02-20T01:11:10.161Z,-1.1
2018-02-20T01:12:09.869Z,-1.24
2018-02-20T01:13:09.838Z,-1.24
2018-02-20T01:14:09.819Z,-1.21
2018-02-20T01:15:10.074Z,-1.23
2018-02-20T01:16:09.771Z,-1.2
2018-02-20T01:17:10.007Z,-1.18
2018-02-20T01:18:09.989Z,-1.24
2018-02-20T01:19:09.956Z,-1.24
2018-02-20T01:20:09.666Z,-1.3
2018-02-20T01:21:09.906Z,-1.3
2018-02-20T01:22:09.347Z,-1.2
2018-02-20T01:23:09.322Z,-1.3
2018-02-20T01:24:09.828Z,-1.21
2018-02-20T01:25:09.801Z,-1.24
2018-02-20T01:26:09.914Z,-1.27
2018-02-20T01:27:09.484Z,-1.25
2018-02-20T01:28:09.726Z,-1.3
2018-02-20T01:29:09.433Z,-1.3
2018-02-20T01:30:09.671Z,-1.35
2018-02-20T01:31:09.381Z,-1.39
2018-02-20T01:32:09.360Z,-1.35
2018-02-20T01:33:09.334Z,-1.33
2018-02-20T01:34:09.306Z,-1.35
2018-02-20T01:35:09.277Z,-1.36
2018-02-20T01:36:09.249Z,-1.39
2018-02-20T01:37:09.221Z,-1.38
2018-02-20T01:38:09.206Z,-1.38
2018-02-20T01:39:09.445Z,-1.36
2018-02-20T01:40:09.178Z,-1.42
2018-02-20T01:41:09.130Z,-1.42
2018-02-20T01:42:09.096Z,-1.36
2018-02-20T01:43:09.345Z,-1.39
2018-02-20T01:44:09.051Z,-1.41
2018-02-20T01:45:09.288Z,-1.39
2018-02-20T01:46:08.731Z,-1.3
2018-02-20T01:47:08.717Z,-1.28
2018-02-20T01:48:08.687Z,-1.31
2018-02-20T01:49:08.920Z,-1.27
2018-02-20T01:50:08.628Z,-1.35
2018-02-20T01:51:08.865Z,-1.28
2018-02-20T01:52:08.848Z,-1.28
2018-02-20T01:53:08.821Z,-1.2
2018-02-20T01:54:08.796Z,-1.2
2018-02-20T01:55:08.787Z,-1.21
2018-02-20T01:56:08.744Z,-1.21
2018-02-20T01:57:08.722Z,-1.21
2018-02-20T01:58:09.022Z,-1.25
2018-02-20T01:59:08.933Z,-1.17
2018-02-20T02:00:08.907Z,-1.28
2018-02-20T02:01:08.878Z,-1.13
2018-02-20T02:02:08.592Z,-1.15
2018-02-20T02:03:08.564Z,-1.1
2018-02-20T02:04:08.816Z,-1.21
2018-02-20T02:05:08.881Z,-1.23
2018-02-20T02:06:08.491Z,-1.23
2018-02-20T02:07:08.233Z,-1.17
2018-02-20T02:08:08.702Z,-1.12
2018-02-20T02:09:08.686Z,-1.17
2018-02-20T02:10:08.658Z,-1.21
2018-02-20T02:11:08.380Z,-1.27
2018-02-20T02:12:08.338Z,-1.23
2018-02-20T02:13:08.307Z,-1.21
2018-02-20T02:14:08.288Z,-1.27
2018-02-20T02:15:08.319Z,-1.25
2018-02-20T02:16:08.240Z,-1.28
2018-02-20T02:17:08.484Z,-1.24
2018-02-20T02:18:08.452Z,-1.28
2018-02-20T02:19:08.162Z,-1.28
2018-02-20T02:20:08.135Z,-1.36
2018-02-20T02:21:08.103Z,-1.41
2018-02-20T02:22:08.083Z,-1.31
2018-02-20T02:23:08.054Z,-1.41
2018-02-20T02:24:08.034Z,-1.42
2018-02-20T02:25:08.272Z,-1.43
2018-02-20T02:26:07.988Z,-1.38
2018-02-20T02:27:07.951Z,-1.41
2018-02-20T02:28:07.931Z,-1.45
2018-02-20T02:29:07.638Z,-1.38
2018-02-20T02:30:08.145Z,-1.43
2018-02-20T02:31:08.122Z,-1.56
2018-02-20T02:32:08.100Z,-1.53
2018-02-20T02:33:08.076Z,-1.57
2018-02-20T02:34:07.776Z,-1.59
2018-02-20T02:35:08.017Z,-1.56
2018-02-20T02:36:07.469Z,-1.56
2018-02-20T02:37:07.978Z,-1.56
2018-02-20T02:38:07.934Z,-1.49
2018-02-20T02:39:07.652Z,-1.64
2018-02-20T02:40:07.891Z,-1.63
2018-02-20T02:41:07.855Z,-1.64
2018-02-20T02:42:07.572Z,-1.66
2018-02-20T02:43:07.810Z,-1.67
2018-02-20T02:44:07.784Z,-1.69
2018-02-20T02:45:07.232Z,-1.7
2018-02-20T02:46:07.475Z,-1.69
2018-02-20T02:47:07.721Z,-1.72
2018-02-20T02:48:07.419Z,-1.75
2018-02-20T02:49:07.392Z,-1.78
2018-02-20T02:50:07.638Z,-1.75
2018-02-20T02:51:07.618Z,-1.69
2018-02-20T02:52:07.313Z,-1.78
2018-02-20T02:53:07.293Z,-1.78
2018-02-20T02:54:07.531Z,-1.75
2018-02-20T02:55:07.243Z,-1.75
2018-02-20T02:56:07.207Z,-1.64
2018-02-20T02:57:07.451Z,-1.81
2018-02-20T02:58:07.209Z,-1.82
2018-02-20T02:59:07.409Z,-1.82
2018-02-20T03:00:07.376Z,-1.8
2018-02-20T03:01:07.088Z,-1.84
2018-02-20T03:02:07.324Z,-1.77
2018-02-20T03:03:07.301Z,-1.8
2018-02-20T03:04:07.005Z,-1.84
2018-02-20T03:05:06.982Z,-1.8
2018-02-20T03:06:06.960Z,-1.75
2018-02-20T03:07:06.661Z,-1.81
2018-02-20T03:08:06.899Z,-1.78
2018-02-20T03:09:06.873Z,-1.8
2018-02-20T03:10:06.848Z,-1.77
2018-02-20T03:11:06.823Z,-1.67
2018-02-20T03:12:07.061Z,-1.84
2018-02-20T03:13:07.034Z,-1.75
2018-02-20T03:14:06.742Z,-1.72
2018-02-20T03:15:06.717Z,-1.88
2018-02-20T03:16:06.955Z,-1.78
2018-02-20T03:17:06.666Z,-1.85
2018-02-20T03:18:06.641Z,-1.87
2018-02-20T03:19:06.613Z,-1.82
2018-02-20T03:20:06.858Z,-1.75
2018-02-20T03:21:06.824Z,-1.75
2018-02-20T03:22:06.533Z,-1.84
2018-02-20T03:23:06.807Z,-1.78
2018-02-20T03:24:06.217Z,-1.84
2018-02-20T03:25:06.458Z,-1.85
2018-02-20T03:26:06.434Z,-1.84
2018-02-20T03:27:06.407Z,-1.81
2018-02-20T03:28:06.397Z,-1.85
2018-02-20T03:29:06.358Z,-1.93
2018-02-20T03:30:06.604Z,-1.93
2018-02-20T03:31:06.576Z,-1.87
2018-02-20T03:32:06.540Z,-1.93
2018-02-20T03:33:06.520Z,-1.99
2018-02-20T03:34:06.227Z,-1.9
2018-02-20T03:35:06.200Z,-1.9
2018-02-20T03:36:06.173Z,-1.96
2018-02-20T03:37:05.897Z,-1.98
2018-02-20T03:38:06.385Z,-2
2018-02-20T03:39:06.101Z,-1.98
2018-02-20T03:40:06.110Z,-1.98
2018-02-20T03:41:06.312Z,-1.93
2018-02-20T03:42:06.287Z,-1.99
2018-02-20T03:43:05.990Z,-2
2018-02-20T03:44:06.235Z,-2.05
2018-02-20T03:45:05.945Z,-2.06
2018-02-20T03:46:05.924Z,-2.11
2018-02-20T03:47:05.891Z,-2.14
2018-02-20T03:48:05.861Z,-2.18
2018-02-20T03:49:06.104Z,-2.08
2018-02-20T03:50:06.079Z,-2.14
2018-02-20T03:51:05.790Z,-2.11
2018-02-20T03:52:05.761Z,-2.1
2018-02-20T03:53:05.738Z,-2.13
2018-02-20T03:54:05.969Z,-2.1
2018-02-20T03:55:05.953Z,-2.14
2018-02-20T03:56:05.658Z,-2.18
2018-02-20T03:57:05.631Z,-2.14
2018-02-20T03:58:05.607Z,-2.21
2018-02-20T03:59:05.894Z,-2.17
2018-02-20T04:00:05.556Z,-2.2
2018-02-20T04:01:05.271Z,-2.26
2018-02-20T04:02:05.768Z,-2.21
2018-02-20T04:03:05.487Z,-2.24
2018-02-20T04:04:05.464Z,-2.29
2018-02-20T04:05:05.159Z,-2.2
2018-02-20T04:06:05.132Z,-2.29
2018-02-20T04:07:05.115Z,-2.32
2018-02-20T04:08:05.609Z,-2.33
2018-02-20T04:09:05.634Z,-2.36
2018-02-20T04:10:05.033Z,-2.39
2018-02-20T04:11:05.261Z,-2.4
2018-02-20T04:12:05.507Z,-2.39
2018-02-20T04:13:05.218Z,-2.45
2018-02-20T04:14:05.192Z,-2.48
2018-02-20T04:15:05.421Z,-2.48
2018-02-20T04:16:05.134Z,-2.35
2018-02-20T04:17:04.843Z,-2.43
2018-02-20T04:18:05.347Z,-2.33
2018-02-20T04:19:05.327Z,-2.4
2018-02-20T04:20:05.028Z,-2.39
2018-02-20T04:21:05.267Z,-2.39
2018-02-20T04:22:04.993Z,-2.26
2018-02-20T04:23:05.229Z,-2.26
2018-02-20T04:24:04.925Z,-2.26
2018-02-20T04:25:05.167Z,-2.2
2018-02-20T04:26:05.136Z,-2.28
2018-02-20T04:27:05.109Z,-2.24
2018-02-20T04:28:05.085Z,-2.28
2018-02-20T04:29:04.791Z,-2.28
2018-02-20T04:30:04.770Z,-2.28
2018-02-20T04:31:04.738Z,-2.24
2018-02-20T04:32:04.715Z,-2.29
2018-02-20T04:33:04.698Z,-2.24
2018-02-20T04:34:04.972Z,-2.23
2018-02-20T04:35:04.900Z,-2.29
2018-02-20T04:36:04.875Z,-2.36
2018-02-20T04:37:04.854Z,-2.35
2018-02-20T04:38:04.825Z,-2.4
2018-02-20T04:39:04.804Z,-2.36
2018-02-20T04:40:04.774Z,-2.36
2018-02-20T04:41:04.481Z,-2.42
2018-02-20T04:42:04.457Z,-2.4
2018-02-20T04:43:04.697Z,-2.42
2018-02-20T04:44:04.135Z,-2.43
2018-02-20T04:45:04.420Z,-2.38
2018-02-20T04:46:04.353Z,-2.42
2018-02-20T04:47:04.590Z,-2.43
2018-02-20T04:48:04.308Z,-2.4
2018-02-20T04:49:04.271Z,-2.39
2018-02-20T04:50:04.295Z,-2.43
2018-02-20T04:51:04.242Z,-2.39
2018-02-20T04:52:04.203Z,-2.42
2018-02-20T04:53:04.185Z,-2.42
2018-02-20T04:54:04.411Z,-2.47
2018-02-20T04:55:04.115Z,-2.45
2018-02-20T04:56:04.111Z,-2.4
2018-02-20T04:57:04.322Z,-2.4
2018-02-20T04:58:04.032Z,-2.39
2018-02-20T04:59:04.283Z,-2.38
2018-02-20T05:00:04.252Z,-2.5
2018-02-20T05:01:03.973Z,-2.47
2018-02-20T05:02:03.933Z,-2.42
2018-02-20T05:03:04.173Z,-2.54
2018-02-20T05:04:03.877Z,-2.54
2018-02-20T05:05:03.852Z,-2.51
2018-02-20T05:06:03.561Z,-2.5
2018-02-20T05:07:03.796Z,-2.51
2018-02-20T05:08:04.034Z,-2.48
2018-02-20T05:09:03.481Z,-2.51
2018-02-20T05:10:03.983Z,-2.57
2018-02-20T05:11:03.949Z,-2.54
2018-02-20T05:12:03.396Z,-2.51
2018-02-20T05:13:03.375Z,-2.56
2018-02-20T05:14:03.346Z,-2.57
2018-02-20T05:15:03.856Z,-2.68
2018-02-20T05:16:03.555Z,-2.61
2018-02-20T05:17:03.802Z,-2.57
2018-02-20T05:18:03.504Z,-2.66
2018-02-20T05:19:03.744Z,-2.58
2018-02-20T05:20:03.714Z,-2.69
2018-02-20T05:21:03.430Z,-2.69
2018-02-20T05:22:03.398Z,-2.68
2018-02-20T05:23:03.380Z,-2.6
2018-02-20T05:24:03.349Z,-2.66
2018-02-20T05:25:03.329Z,-2.69
2018-02-20T05:26:03.028Z,-2.66
2018-02-20T05:27:03.753Z,-2.69
2018-02-20T05:28:03.242Z,-2.72
2018-02-20T05:29:03.214Z,-2.69
2018-02-20T05:30:03.182Z,-2.69
2018-02-20T05:31:03.427Z,-2.66
2018-02-20T05:32:03.132Z,-2.61
2018-02-20T05:33:03.112Z,-2.69
2018-02-20T05:34:02.816Z,-2.69
2018-02-20T05:35:03.323Z,-2.75
2018-02-20T05:36:03.030Z,-2.63
2018-02-20T05:37:03.009Z,-2.64
2018-02-20T05:38:03.254Z,-2.72
2018-02-20T05:39:02.683Z,-2.68
2018-02-20T05:40:02.923Z,-2.58
2018-02-20T05:41:03.162Z,-2.57
2018-02-20T05:42:02.868Z,-2.56
2018-02-20T05:43:02.858Z,-2.56
2018-02-20T05:44:02.821Z,-2.58
2018-02-20T05:45:02.801Z,-2.48
2018-02-20T05:46:02.774Z,-2.48
2018-02-20T05:47:03.061Z,-2.53
2018-02-20T05:48:02.973Z,-2.47
2018-02-20T05:49:02.954Z,-2.56
2018-02-20T05:50:02.665Z,-2.53
2018-02-20T05:51:02.898Z,-2.54
2018-02-20T05:52:02.883Z,-2.53
2018-02-20T05:53:02.849Z,-2.58
2018-02-20T05:54:02.286Z,-2.64
2018-02-20T05:55:02.529Z,-2.61
2018-02-20T05:56:02.766Z,-2.61
2018-02-20T05:57:02.210Z,-2.6
2018-02-20T05:58:02.754Z,-2.66
2018-02-20T05:59:02.689Z,-2.68
2018-02-20T06:00:02.401Z,-2.63
2018-02-20T06:01:02.368Z,-2.64
2018-02-20T06:02:02.338Z,-2.69
2018-02-20T06:03:02.046Z,-2.72
2018-02-20T06:04:02.290Z,-2.78
2018-02-20T06:05:02.533Z,-2.71
2018-02-20T06:06:02.503Z,-2.75
2018-02-20T06:07:02.471Z,-2.76
2018-02-20T06:08:01.912Z,-2.78
2018-02-20T06:09:02.155Z,-2.69
2018-02-20T06:10:01.860Z,-2.76
2018-02-20T06:11:02.103Z,-2.79
2018-02-20T06:12:02.068Z,-2.85
2018-02-20T06:13:02.054Z,-2.72
2018-02-20T06:14:02.026Z,-2.78
2018-02-20T06:15:01.995Z,-2.85
2018-02-20T06:16:02.250Z,-2.78
2018-02-20T06:17:02.207Z,-2.82
2018-02-20T06:18:01.912Z,-2.81
2018-02-20T06:19:02.158Z,-2.85
2018-02-20T06:20:01.592Z,-2.86
2018-02-20T06:21:02.096Z,-2.81
2018-02-20T06:22:01.823Z,-2.89
2018-02-20T06:23:01.786Z,-2.87
2018-02-20T06:24:01.763Z,-2.82
2018-02-20T06:25:01.755Z,-2.86
2018-02-20T06:26:01.703Z,-2.81
2018-02-20T06:27:01.408Z,-2.81
2018-02-20T06:28:01.922Z,-2.86
2018-02-20T06:29:01.622Z,-2.82
2018-02-20T06:30:01.597Z,-2.78
2018-02-20T06:31:01.304Z,-2.81
2018-02-20T06:32:01.826Z,-2.87
2018-02-20T06:33:01.513Z,-2.79
2018-02-20T06:34:01.498Z,-2.79
2018-02-20T06:35:01.468Z,-2.81
2018-02-20T06:36:01.704Z,-2.85
2018-02-20T06:37:01.404Z,-2.74
2018-02-20T06:38:01.118Z,-2.81
2018-02-20T06:39:01.092Z,-2.85
2018-02-20T06:40:01.594Z,-2.71
2018-02-20T06:41:01.325Z,-2.72
2018-02-20T06:42:01.558Z,-2.68
2018-02-20T06:43:01.260Z,-2.69
2018-02-20T06:44:01.237Z,-2.68
2018-02-20T06:45:01.199Z,-2.74
2018-02-20T06:46:01.435Z,-2.66
2018-02-20T06:47:01.142Z,-2.61
2018-02-20T06:48:01.380Z,-2.6
2018-02-20T06:49:01.090Z,-2.56
2018-02-20T06:50:01.062Z,-2.58
2018-02-20T06:51:01.367Z,-2.61
2018-02-20T06:52:01.021Z,-2.66
2018-02-20T06:53:01.253Z,-2.54
2018-02-20T06:54:00.952Z,-2.61
2018-02-20T06:55:00.930Z,-2.57
2018-02-20T06:56:00.897Z,-2.64
2018-02-20T06:57:01.159Z,-2.63
2018-02-20T06:58:00.859Z,-2.6
2018-02-20T06:59:01.088Z,-2.57
2018-02-20T07:00:00.795Z,-2.54
2018-02-20T07:01:00.773Z,-2.57
2018-02-20T07:02:00.484Z,-2.57
2018-02-20T07:03:00.982Z,-2.53
2018-02-20T07:04:00.691Z,-2.43
2018-02-20T07:05:00.932Z,-2.53
2018-02-20T07:06:00.374Z,-2.43
2018-02-20T07:07:00.605Z,-2.36
2018-02-20T07:08:00.580Z,-2.45
2018-02-20T07:09:00.554Z,-2.4
2018-02-20T07:10:00.525Z,-2.43
2018-02-20T07:11:00.499Z,-2.38
2018-02-20T07:12:00.472Z,-2.39
2018-02-20T07:13:00.718Z,-2.42
2018-02-20T07:14:00.422Z,-2.4
2018-02-20T07:15:00.129Z,-2.43
2018-02-20T07:16:00.365Z,-2.39
2018-02-20T07:17:00.076Z,-2.35
2018-02-20T07:18:00.050Z,-2.24
2018-02-20T07:19:00.558Z,-2.23
2018-02-20T07:20:00.262Z,-2.21
2018-02-20T07:21:00.505Z,-2.16
2018-02-20T07:22:00.480Z,-2.18
2018-02-20T07:22:59.924Z,-2.11
2018-02-20T07:23:59.900Z,-2.14
2018-02-20T07:25:00.126Z,-2.17
2018-02-20T07:26:00.109Z,-2.06
2018-02-20T07:27:00.283Z,-2.1
2018-02-20T07:27:59.792Z,-2.08
2018-02-20T07:29:00.031Z,-2.1
2018-02-20T07:30:00.272Z,-2
2018-02-20T07:31:00.240Z,-2
2018-02-20T07:32:00.214Z,-1.95
2018-02-20T07:32:59.926Z,-1.95
2018-02-20T07:33:59.630Z,-1.88
2018-02-20T07:34:59.871Z,-1.98
2018-02-20T07:35:59.579Z,-1.82
2018-02-20T07:37:00.081Z,-1.84
2018-02-20T07:38:00.057Z,-1.82
2018-02-20T07:38:59.765Z,-1.78
2018-02-20T07:39:59.741Z,-1.74
2018-02-20T07:40:59.446Z,-1.74
2018-02-20T07:41:59.685Z,-1.74
2018-02-20T07:42:59.656Z,-1.66
2018-02-20T07:43:59.952Z,-1.67
2018-02-20T07:44:59.868Z,-1.7
2018-02-20T07:45:59.579Z,-1.66
2018-02-20T07:46:59.292Z,-1.63
2018-02-20T07:47:59.793Z,-1.45
2018-02-20T07:48:59.774Z,-1.42
2018-02-20T07:49:59.491Z,-1.48
2018-02-20T07:50:59.453Z,-1.38
2018-02-20T07:51:59.425Z,-1.41
2018-02-20T07:52:59.667Z,-1.28
2018-02-20T07:53:59.387Z,-1.31
2018-02-20T07:54:59.616Z,-1.27
2018-02-20T07:55:59.054Z,-1.25
2018-02-20T07:56:59.300Z,-1.24
2018-02-20T07:57:59.271Z,-1.12
2018-02-20T07:58:59.515Z,-1.13
2018-02-20T07:59:59.489Z,-1.07
2018-02-20T08:00:59.462Z,-1.06
2018-02-20T08:01:59.174Z,-1.07
2018-02-20T08:02:59.141Z,-1.03
2018-02-20T08:03:59.117Z,-0.95
2018-02-20T08:04:59.094Z,-0.91
2018-02-20T08:05:59.335Z,-0.91
2018-02-20T08:06:58.780Z,-0.77
2018-02-20T08:07:59.019Z,-0.84
2018-02-20T08:08:58.728Z,-0.69
2018-02-20T08:09:58.700Z,-0.66
2018-02-20T08:10:58.683Z,-0.66
2018-02-20T08:11:58.918Z,-0.62
2018-02-20T08:12:58.894Z,-0.48
2018-02-20T08:13:59.142Z,-0.57
2018-02-20T08:14:58.849Z,-0.52
2018-02-20T08:15:59.080Z,-0.36
2018-02-20T08:16:59.060Z,-0.36
2018-02-20T08:17:59.035Z,-0.39
2018-02-20T08:18:58.741Z,-0.33
2018-02-20T08:19:58.981Z,-0.27
2018-02-20T08:20:58.690Z,-0.27
2018-02-20T08:21:58.673Z,-0.3
2018-02-20T08:22:58.637Z,-0.22
2018-02-20T08:23:58.614Z,-0.27
2018-02-20T08:24:58.595Z,-0.24
2018-02-20T08:25:58.563Z,-0.16
2018-02-20T08:26:58.544Z,-0.18
2018-02-20T08:27:58.524Z,-0.04
2018-02-20T08:28:58.492Z,-0.01
2018-02-20T08:29:58.464Z,0.03
2018-02-20T08:30:58.175Z,0.03
2018-02-20T08:31:58.683Z,0.23
2018-02-20T08:32:58.127Z,0.51
2018-02-20T08:33:58.376Z,0.8
2018-02-20T08:34:58.624Z,0.92
2018-02-20T08:35:58.326Z,0.89
2018-02-20T08:36:58.298Z,0.89
2018-02-20T08:37:58.273Z,0.86
2018-02-20T08:38:58.515Z,0.94
2018-02-20T08:39:57.962Z,1.39
2018-02-20T08:40:58.211Z,2.27
2018-02-20T08:41:57.917Z,2.97
2018-02-20T08:42:57.896Z,3.52
2018-02-20T08:43:58.139Z,3.65
2018-02-20T08:44:57.845Z,3.72
2018-02-20T08:45:58.351Z,4.16
2018-02-20T08:46:58.069Z,4.77
2018-02-20T08:47:58.313Z,5.38
2018-02-20T08:48:58.027Z,5.74
2018-02-20T08:49:58.010Z,5.88
2018-02-20T08:50:58.249Z,5.93
2018-02-20T08:51:57.967Z,5.73
2018-02-20T08:52:58.207Z,5.56
2018-02-20T08:53:58.188Z,5.6
2018-02-20T08:54:57.636Z,5.98
2018-02-20T08:55:58.145Z,6.4
2018-02-20T08:56:58.122Z,6.68
2018-02-20T08:57:57.843Z,7.15
2018-02-20T08:58:57.821Z,7.69
2018-02-20T08:59:57.806Z,8.08
2018-02-20T09:00:58.049Z,8.3
2018-02-20T09:01:57.770Z,8.45
2018-02-20T09:02:57.748Z,8.62
2018-02-20T09:03:57.992Z,9.04
2018-02-20T09:04:57.717Z,9.42
2018-02-20T09:05:57.967Z,9.64
2018-02-20T09:06:57.680Z,9.64
2018-02-20T09:07:57.658Z,9.39
2018-02-20T09:08:57.646Z,9.09
2018-02-20T09:09:57.897Z,8.81
2018-02-20T09:10:57.345Z,8.71
2018-02-20T09:11:57.854Z,8.94
2018-02-20T09:12:57.841Z,9.27
2018-02-20T09:13:57.833Z,9.15
2018-02-20T09:14:57.807Z,9.28
2018-02-20T09:15:57.532Z,9.25
2018-02-20T09:16:57.506Z,8.69
2018-02-20T09:17:57.759Z,8.66
2018-02-20T09:18:57.738Z,8.63
2018-02-20T09:19:57.458Z,8.73
2018-02-20T09:20:57.703Z,8.72
2018-02-20T09:21:57.426Z,8.54
2018-02-20T09:22:57.679Z,8.39
2018-02-20T09:23:57.390Z,8.47
2018-02-20T09:24:57.372Z,8.5
2018-02-20T09:25:57.647Z,8.32
2018-02-20T09:26:57.824Z,8.18
2018-02-20T09:27:57.596Z,7.96
2018-02-20T09:28:57.048Z,7.72
2018-02-20T09:29:57.295Z,7.78
2018-02-20T09:30:57.319Z,7.92
2018-02-20T09:31:57.526Z,8.35
2018-02-20T09:32:57.249Z,8.66
2018-02-20T09:33:57.490Z,8.36
2018-02-20T09:34:57.217Z,8.14
2018-02-20T09:35:57.458Z,7.82
2018-02-20T09:36:57.451Z,7.71
2018-02-20T09:37:57.175Z,7.38
2018-02-20T09:38:57.409Z,7.34
2018-02-20T09:39:57.128Z,7.44
2018-02-20T09:40:57.382Z,7.47
2018-02-20T09:41:57.096Z,7.56
2018-02-20T09:42:57.074Z,7.78
2018-02-20T09:43:57.060Z,7.74
2018-02-20T09:44:57.049Z,7.52
2018-02-20T09:45:57.028Z,7.17
2018-02-20T09:46:57.281Z,7.15
2018-02-20T09:47:56.996Z,7.42
2018-02-20T09:48:56.974Z,7.74
2018-02-20T09:49:56.961Z,7.75
2018-02-20T09:50:56.675Z,7.72
2018-02-20T09:51:56.926Z,7.58
2018-02-20T09:52:57.182Z,7.44
2018-02-20T09:53:57.163Z,7.56
2018-02-20T09:54:57.138Z,7.47
2018-02-20T09:55:56.610Z,7.32
2018-02-20T09:56:56.844Z,7.35
2018-02-20T09:57:56.835Z,7.34
2018-02-20T09:58:57.095Z,7.53
2018-02-20T09:59:56.538Z,7.79
2018-02-20T10:00:57.052Z,8.28
2018-02-20T10:01:56.768Z,8.72
2018-02-20T10:02:56.747Z,8.94
2018-02-20T10:03:56.467Z,8.44
2018-02-20T10:04:56.717Z,8.22
2018-02-20T10:05:56.706Z,8
2018-02-20T10:06:56.949Z,7.99
2018-02-20T10:07:56.673Z,7.85
2018-02-20T10:08:56.924Z,7.97
2018-02-20T10:09:56.370Z,8.07
2018-02-20T10:10:56.632Z,7.92
2018-02-20T10:11:56.866Z,7.79
2018-02-20T10:12:56.591Z,7.69
2018-02-20T10:13:56.835Z,7.67
2018-02-20T10:14:56.826Z,7.87
2018-02-20T10:15:56.827Z,8.02
2018-02-20T10:16:56.527Z,8.15
2018-02-20T10:17:56.508Z,8.1
2018-02-20T10:18:56.804Z,8.28
2018-02-20T10:19:56.560Z,8.48
2018-02-20T10:20:56.782Z,8.57
2018-02-20T10:21:56.450Z,8.65
2018-02-20T10:22:56.705Z,8.96
2018-02-20T10:23:56.428Z,9.18
2018-02-20T10:24:56.177Z,9.32
2018-02-20T10:25:56.404Z,9.39
2018-02-20T10:26:56.439Z,9.42
2018-02-20T10:27:56.375Z,9.46
2018-02-20T10:28:56.648Z,9.42
2018-02-20T10:29:56.350Z,9.16
2018-02-20T10:30:56.617Z,8.97
2018-02-20T10:31:56.310Z,8.9
2018-02-20T10:32:56.567Z,8.93
2018-02-20T10:33:56.281Z,9.06
2018-02-20T10:34:56.274Z,9.28
2018-02-20T10:35:56.255Z,9.34
2018-02-20T10:36:55.980Z,9.4
2018-02-20T10:37:56.502Z,9.4
2018-02-20T10:38:56.518Z,9.42
2018-02-20T10:39:55.937Z,9.3
2018-02-20T10:40:56.454Z,9.49
2018-02-20T10:41:56.174Z,9.71
2018-02-20T10:42:56.163Z,9.89
2018-02-20T10:43:56.146Z,10.09
2018-02-20T10:44:56.398Z,10.09
2018-02-20T10:45:56.401Z,10
2018-02-20T10:46:56.107Z,9.97
2018-02-20T10:47:56.355Z,9.85
2018-02-20T10:48:56.085Z,9.75
2018-02-20T10:49:56.391Z,9.79
2018-02-20T10:50:56.056Z,9.93
2018-02-20T10:51:56.041Z,9.97
2018-02-20T10:52:56.093Z,10.03
2018-02-20T10:53:56.283Z,10
2018-02-20T10:54:56.000Z,9.85
2018-02-20T10:55:56.257Z,9.79
2018-02-20T10:56:55.727Z,9.99
2018-02-20T10:57:56.231Z,10.19
2018-02-20T10:58:56.219Z,10.46
2018-02-20T10:59:55.669Z,10.51
2018-02-20T11:00:55.924Z,10.47
2018-02-20T11:01:55.913Z,10.51
2018-02-20T11:02:56.162Z,10.46
2018-02-20T11:03:55.995Z,10.4
2018-02-20T11:04:55.605Z,9.97
2018-02-20T11:05:55.864Z,10.01
2018-02-20T11:06:55.901Z,9.81
2018-02-20T11:07:55.847Z,9.96
2018-02-20T11:08:56.128Z,10.19
2018-02-20T11:09:56.291Z,10.39
2018-02-20T11:10:55.797Z,10.62
2018-02-20T11:11:55.790Z,10.74
2018-02-20T11:12:55.513Z,10.55
2018-02-20T11:13:56.027Z,10.4
2018-02-20T11:14:55.757Z,10.24
2018-02-20T11:15:55.740Z,9.97
2018-02-20T11:16:56.878Z,9.93
2018-02-20T11:17:55.452Z,10.04
2018-02-20T11:18:55.711Z,10.06
2018-02-20T11:19:55.694Z,10.15
2018-02-20T11:20:55.689Z,10.28
2018-02-20T11:21:55.676Z,10.15
2018-02-20T11:22:55.663Z,10.34
2018-02-20T11:23:55.388Z,10.4
2018-02-20T11:24:55.374Z,10.68
2018-02-20T11:25:55.634Z,10.78
2018-02-20T11:26:56.092Z,10.83
2018-02-20T11:27:55.607Z,10.91
2018-02-20T11:28:55.598Z,10.76
2018-02-20T11:29:55.861Z,10.73
2018-02-20T11:30:55.664Z,10.4
2018-02-20T11:31:55.831Z,10.63
2018-02-20T11:32:55.819Z,10.88
2018-02-20T11:33:55.544Z,11.09
2018-02-20T11:34:55.811Z,11.29
2018-02-20T11:35:55.525Z,11.49
2018-02-20T11:36:55.781Z,11.65
2018-02-20T11:37:55.507Z,11.96
2018-02-20T11:38:55.761Z,12.21
2018-02-20T11:39:55.489Z,12.3
2018-02-20T11:40:55.477Z,12.49
2018-02-20T11:41:55.463Z,12.46
2018-02-20T11:42:55.452Z,12.52
2018-02-20T11:43:55.509Z,12.74
2018-02-20T11:44:55.701Z,13.03
2018-02-20T11:45:55.687Z,12.97
2018-02-20T11:46:55.152Z,12.84
2018-02-20T11:47:55.408Z,12.93
2018-02-20T11:48:55.398Z,12.74
2018-02-20T11:49:55.393Z,12.74
2018-02-20T11:50:55.639Z,12.82
2018-02-20T11:51:55.100Z,12.46
2018-02-20T11:52:55.367Z,12.39
2018-02-20T11:53:55.615Z,12.2
2018-02-20T11:54:55.604Z,12.12
2018-02-20T11:55:55.364Z,12.05
2018-02-20T11:56:55.063Z,11.94
2018-02-20T11:57:55.585Z,11.8
2018-02-20T11:58:55.311Z,11.64
2018-02-20T11:59:55.569Z,11.65
2018-02-20T12:00:55.557Z,11.62
2018-02-20T12:01:55.553Z,11.82
2018-02-20T12:02:55.541Z,11.9
2018-02-20T12:03:55.268Z,11.99
2018-02-20T12:04:54.993Z,11.89
2018-02-20T12:05:55.252Z,11.97
2018-02-20T12:06:55.239Z,11.9
2018-02-20T12:07:54.967Z,12.11
2018-02-20T12:08:55.230Z,12.33
2018-02-20T12:09:55.477Z,12.6
2018-02-20T12:10:54.950Z,12.74
2018-02-20T12:11:54.941Z,13
2018-02-20T12:12:55.461Z,13.09
2018-02-20T12:13:55.297Z,13.44
2018-02-20T12:14:55.180Z,13.67
2018-02-20T12:15:55.451Z,13.67
2018-02-20T12:16:55.448Z,13.7
2018-02-20T12:17:55.439Z,13.87
2018-02-20T12:18:55.438Z,14.27
2018-02-20T12:19:54.898Z,14.42
2018-02-20T12:20:55.439Z,14.5
2018-02-20T12:21:55.405Z,14.69
2018-02-20T12:22:55.140Z,14.95
2018-02-20T12:23:55.404Z,15.05
2018-02-20T12:24:55.131Z,15.19
2018-02-20T12:25:55.129Z,15.11
2018-02-20T12:26:55.123Z,15.3
2018-02-20T12:27:54.863Z,15.17
2018-02-20T12:28:55.383Z,15.09
2018-02-20T12:29:55.110Z,14.95
2018-02-20T12:30:55.111Z,14.99
2018-02-20T12:31:55.366Z,15.05
2018-02-20T12:32:55.101Z,15.23
2018-02-20T12:33:55.093Z,15.36
2018-02-20T12:34:55.094Z,15.46
2018-02-20T12:35:55.424Z,15.13
2018-02-20T12:36:55.370Z,15.09
2018-02-20T12:37:54.811Z,14.69
2018-02-20T12:38:55.340Z,14.69
2018-02-20T12:39:55.334Z,14.81
2018-02-20T12:40:55.339Z,15.01
2018-02-20T12:41:54.800Z,15.12
2018-02-20T12:42:55.338Z,15.09
2018-02-20T12:43:54.795Z,15.3
2018-02-20T12:44:54.987Z,15.59
2018-02-20T12:45:55.055Z,15.61
2018-02-20T12:46:55.313Z,15.68
2018-02-20T12:47:55.054Z,15.94
2018-02-20T12:48:55.298Z,15.82
2018-02-20T12:49:55.056Z,15.88
2018-02-20T12:50:55.033Z,16.01
2018-02-20T12:51:54.765Z,16
2018-02-20T12:52:55.035Z,16.01
2018-02-20T12:53:54.758Z,16.12
2018-02-20T12:54:55.289Z,16.27
2018-02-20T12:55:55.022Z,16.38
2018-02-20T12:56:55.274Z,16.48
2018-02-20T12:57:55.014Z,16.42
2018-02-20T12:58:54.734Z,16.45
2018-02-20T12:59:55.269Z,16.34